Terminal Aerodrome Forecast
Issued by NWS

Home | Current Version | Previous Version | Text Only | Print | Product List | Glossary Off
Versions: 1 2 3 4 5 6 7 8 9 10 11 12 13 14 15 16

000
FTUS43 KMPX 221136
TAFRWF
TAF
KRWF 221136Z 2212/2312 28007KT P6SM BKN009
      TEMPO 2212/2216 SCT009
     FM221600 22007KT P6SM SCT020
     FM222000 22013G18KT P6SM FEW100
     FM230600 21016G20KT P6SM OVC120=

USA.gov is the U.S. government's official web portal to all federal, state and local government web resources and services.